Time;durP1;ratioP1;P1;durP2;ratioP2;P2;SDS_P1;SDS_P2;PMS_P1;PMS_P2;Temp;Humidity;BMP_temperature;BMP_pressure;BME280_temperature;BME280_humidity;BME280_pressure;Samples;Min_cycle;Max_cycle;Signal;HPM_P1;HPM_P2
2022/03/19 00:02:22;;;;;;;26.00;12.75;;;;;;;4.83;67.17;101528.16;4472876;32;33690;-73
2022/03/19 00:04:50;;;;;;;31.58;16.23;;;;;;;4.91;66.54;101532.00;4485359;32;34838;-73
2022/03/19 00:07:17;;;;;;;28.67;14.73;;;;;;;4.95;66.63;101526.16;4486937;32;34360;-73
2022/03/19 00:09:45;;;;;;;29.45;16.08;;;;;;;4.88;66.73;101526.69;4474320;32;33563;-73
2022/03/19 00:12:14;;;;;;;26.95;13.75;;;;;;;4.77;66.62;101528.75;4460325;32;33629;-71
2022/03/19 00:14:42;;;;;;;28.67;13.65;;;;;;;4.52;67.72;101519.81;4456846;32;34724;-73
2022/03/19 00:17:10;;;;;;;29.37;13.75;;;;;;;4.94;65.86;101521.78;4457126;32;34404;-72
2022/03/19 00:19:39;;;;;;;25.17;11.35;;;;;;;4.92;66.48;101524.31;4456418;32;33659;-73
2022/03/19 00:22:07;;;;;;;26.90;13.05;;;;;;;4.92;65.90;101518.25;4456997;32;33765;-72
2022/03/19 00:24:35;;;;;;;27.83;14.73;;;;;;;4.66;67.14;101520.50;4466240;32;35044;-72
2022/03/19 00:27:03;;;;;;;26.60;14.30;;;;;;;4.03;69.64;101513.91;4472641;32;34320;-73
2022/03/19 00:29:31;;;;;;;18.52;10.98;;;;;;;4.59;68.32;101512.38;4462840;32;33841;-73
2022/03/19 00:31:59;;;;;;;24.40;13.77;;;;;;;4.99;66.37;101511.69;4456829;32;33988;-73
2022/03/19 00:34:27;;;;;;;24.83;12.70;;;;;;;4.94;66.10;101516.62;4470542;32;36013;-73
2022/03/19 00:36:56;;;;;;;29.52;13.50;;;;;;;4.68;66.94;101510.25;4471227;32;35244;-73
2022/03/19 00:39:24;;;;;;;26.95;14.52;;;;;;;3.84;69.73;101509.50;4470418;32;33607;-73
2022/03/19 00:41:53;;;;;;;30.50;15.80;;;;;;;3.88;70.51;101514.00;4457087;32;34032;-73
2022/03/19 00:44:21;;;;;;;26.20;14.50;;;;;;;4.10;69.37;101505.69;4470427;32;35241;-73
2022/03/19 00:46:49;;;;;;;24.50;11.25;;;;;;;3.90;70.13;101500.41;4456017;32;34436;-72
2022/03/19 00:49:18;;;;;;;20.08;10.95;;;;;;;4.57;68.34;101502.00;4470849;32;34414;-73
2022/03/19 00:51:46;;;;;;;19.90;10.35;;;;;;;4.96;65.98;101499.53;4470880;32;33910;-73
2022/03/19 00:54:15;;;;;;;22.40;10.70;;;;;;;4.86;65.91;101498.22;4470508;32;35980;-73
2022/03/19 00:56:45;;;;;;;25.65;12.65;;;;;;;4.96;65.12;101498.63;4456977;32;35314;-72
2022/03/19 00:59:13;;;;;;;29.50;11.02;;;;;;;5.28;64.17;101497.56;4476596;32;33481;-73
2022/03/19 01:01:41;;;;;;;20.05;10.77;;;;;;;5.22;64.12;101486.94;4472725;32;34579;-73
2022/03/19 01:04:09;;;;;;;23.30;11.15;;;;;;;4.86;65.54;101490.47;4485290;32;36024;-72
2022/03/19 01:06:37;;;;;;;20.70;12.07;;;;;;;4.37;67.74;101491.56;4477020;32;34413;-73
2022/03/19 01:09:04;;;;;;;29.35;13.62;;;;;;;4.02;69.66;101492.38;4470386;32;33601;-73
2022/03/19 01:11:32;;;;;;;25.08;12.52;;;;;;;4.86;66.36;101487.00;4470766;32;34730;-73
2022/03/19 01:14:01;;;;;;;26.70;12.52;;;;;;;3.95;69.63;101491.22;4460533;32;34984;-73
2022/03/19 01:16:29;;;;;;;26.00;13.65;;;;;;;4.59;67.31;101487.47;4459450;32;35092;-73
2022/03/19 01:18:57;;;;;;;28.25;12.15;;;;;;;3.80;70.61;101486.16;4483940;32;33631;-72
2022/03/19 01:21:25;;;;;;;25.52;13.15;;;;;;;4.78;67.27;101483.16;4470019;32;34761;-73
2022/03/19 01:23:53;;;;;;;26.48;12.77;;;;;;;4.29;68.30;101485.16;4455986;32;34174;-73
2022/03/19 01:26:21;;;;;;;24.63;12.93;;;;;;;4.09;69.71;101489.31;4470919;32;34277;-73
2022/03/19 01:28:48;;;;;;;22.83;12.52;;;;;;;4.26;68.63;101485.00;4470485;32;34411;-73
2022/03/19 01:31:16;;;;;;;21.20;12.35;;;;;;;4.08;69.73;101478.94;4470583;32;34001;-73
2022/03/19 01:33:44;;;;;;;23.65;13.20;;;;;;;4.43;68.69;101480.69;4470208;32;35034;-73
2022/03/19 01:36:12;;;;;;;26.60;12.70;;;;;;;5.29;64.91;101473.47;4470526;32;34562;-71
2022/03/19 01:38:40;;;;;;;27.45;13.00;;;;;;;5.53;63.50;101473.69;4469379;32;34454;-73
2022/03/19 01:41:08;;;;;;;29.12;13.62;;;;;;;4.79;65.65;101467.75;4456306;32;34063;-73
2022/03/19 01:43:37;;;;;;;26.67;13.10;;;;;;;5.34;63.99;101455.62;4470275;32;34995;-73
2022/03/19 01:46:07;;;;;;;24.23;11.73;;;;;;;4.29;66.77;101458.47;4470561;32;34426;-73
2022/03/19 01:48:35;;;;;;;31.73;14.27;;;;;;;3.87;68.47;101451.28;4456346;32;33646;-74
2022/03/19 01:51:03;;;;;;;31.20;14.50;;;;;;;4.05;68.42;101456.47;4470392;32;34829;-73
2022/03/19 01:53:30;;;;;;;29.85;13.95;;;;;;;4.49;67.37;101452.59;4469980;32;35041;-72
2022/03/19 01:55:59;;;;;;;24.85;12.32;;;;;;;4.30;67.34;101449.94;4456549;32;35010;-73
2022/03/19 01:58:27;;;;;;;26.33;12.88;;;;;;;4.82;64.68;101451.50;4468957;32;33418;-72
2022/03/19 02:00:55;;;;;;;25.70;14.00;;;;;;;5.27;62.33;101442.41;4456230;32;33403;-73
2022/03/19 02:03:24;;;;;;;28.73;14.25;;;;;;;4.92;62.98;101445.97;4470359;32;35777;-73
2022/03/19 02:05:52;;;;;;;25.20;11.57;;;;;;;4.26;64.45;101445.44;4470108;32;34451;-73
2022/03/19 02:08:20;;;;;;;26.40;13.38;;;;;;;4.05;64.41;101437.53;4470404;32;33740;-73
2022/03/19 02:10:48;;;;;;;29.80;14.85;;;;;;;3.96;65.70;101436.25;4466495;32;33921;-73
2022/03/19 02:13:15;;;;;;;32.45;14.90;;;;;;;3.31;68.96;101431.22;4473866;32;34960;-73
2022/03/19 02:15:45;;;;;;;26.92;12.80;;;;;;;3.23;69.77;101436.84;4469558;32;34275;-73
2022/03/19 02:18:13;;;;;;;26.50;14.07;;;;;;;3.61;67.60;101435.38;4470918;32;33510;-73
2022/03/19 02:20:41;;;;;;;31.73;16.42;;;;;;;4.20;63.39;101435.72;4471530;32;34049;-73
2022/03/19 02:26:07;;;;;;;27.87;14.57;;;;;;;4.17;63.06;101433.00;4470230;32;34499;-73
2022/03/19 02:28:35;;;;;;;22.65;12.05;;;;;;;2.31;70.32;101438.66;4455808;32;33523;-71
2022/03/19 02:31:03;;;;;;;25.45;14.13;;;;;;;3.49;66.09;101432.16;4456355;32;32352;-73
2022/03/19 02:33:31;;;;;;;26.12;12.65;;;;;;;3.59;64.93;101436.97;4469537;32;35178;-72
2022/03/19 02:35:59;;;;;;;27.90;14.85;;;;;;;3.74;63.92;101430.84;4455852;32;34356;-72
2022/03/19 02:38:26;;;;;;;27.98;14.85;;;;;;;2.55;67.34;101427.16;4455425;32;33498;-72
2022/03/19 02:40:55;;;;;;;24.63;13.18;;;;;;;3.23;65.43;101429.13;4469678;32;34774;-73
2022/03/19 02:43:22;;;;;;;30.67;14.25;;;;;;;3.20;64.87;101423.81;4455888;32;34825;-73
2022/03/19 02:45:50;;;;;;;25.65;13.95;;;;;;;2.88;66.21;101432.41;4483134;32;35330;-73
2022/03/19 02:48:18;;;;;;;33.15;14.60;;;;;;;2.60;66.95;101433.44;4485732;32;34461;-73
2022/03/19 02:50:46;;;;;;;30.98;16.58;;;;;;;3.00;65.72;101424.44;4470180;32;34581;-73
2022/03/19 02:53:13;;;;;;;26.67;14.65;;;;;;;1.68;71.94;101416.25;4469912;32;35016;-73
2022/03/19 02:55:42;;;;;;;32.50;16.98;;;;;;;2.76;66.61;101424.00;4469444;32;35459;-73
2022/03/19 02:58:10;;;;;;;37.75;17.52;;;;;;;2.88;67.41;101424.69;4455245;32;33774;-72
2022/03/19 03:00:38;;;;;;;32.47;16.25;;;;;;;2.11;69.82;101417.84;4467261;32;34794;-73
2022/03/19 03:03:07;;;;;;;31.58;15.90;;;;;;;1.73;72.62;101425.91;4485358;32;35133;-73
2022/03/19 03:05:35;;;;;;;37.40;17.12;;;;;;;2.57;67.46;101424.69;4469922;32;34401;-73
2022/03/19 03:08:04;;;;;;;27.33;15.00;;;;;;;1.33;72.53;101416.75;4485418;32;33522;-72
2022/03/19 03:10:33;;;;;;;37.35;17.08;;;;;;;1.41;72.96;101418.09;4470768;32;34075;-72
2022/03/19 03:13:01;;;;;;;29.67;15.10;;;;;;;2.38;68.08;101410.81;4487271;32;34820;-72
2022/03/19 03:15:29;;;;;;;27.55;15.18;;;;;;;2.54;67.27;101412.56;4477978;32;34397;-73
2022/03/19 03:17:58;;;;;;;35.13;16.40;;;;;;;2.67;67.75;101411.53;4457524;32;33612;-73
2022/03/19 03:20:26;;;;;;;24.27;14.70;;;;;;;2.13;69.78;101408.53;4464663;32;33870;-73
2022/03/19 03:22:54;;;;;;;37.50;17.73;;;;;;;2.27;69.12;101412.78;4477854;32;35004;-72
2022/03/19 03:25:22;;;;;;;33.95;16.75;;;;;;;2.28;70.40;101411.09;4475317;32;34627;-73
2022/03/19 03:27:51;;;;;;;31.42;15.30;;;;;;;2.60;69.32;101414.56;4479320;32;33195;-73
2022/03/19 03:30:20;;;;;;;31.60;15.80;;;;;;;2.18;69.88;101419.97;4464972;32;33819;-72
2022/03/19 03:32:48;;;;;;;26.62;16.27;;;;;;;2.59;68.58;101413.66;4453782;32;35900;-73
2022/03/19 03:35:16;;;;;;;38.13;16.77;;;;;;;2.78;68.05;101405.28;4475740;32;35094;-73
2022/03/19 03:37:44;;;;;;;30.48;14.65;;;;;;;2.62;68.83;101408.69;4478645;32;33471;-73
2022/03/19 03:40:12;;;;;;;30.67;15.77;;;;;;;2.62;67.94;101408.69;4477091;32;34894;-73
2022/03/19 03:42:41;;;;;;;38.00;17.20;;;;;;;2.22;69.89;101413.31;4478066;32;34996;-73
2022/03/19 03:45:10;;;;;;;40.33;19.70;;;;;;;2.55;69.17;101409.16;4463585;32;34501;-73
2022/03/19 03:47:38;;;;;;;30.48;16.10;;;;;;;2.51;70.30;101407.25;4464064;32;33839;-73
2022/03/19 03:50:07;;;;;;;33.03;15.95;;;;;;;1.84;72.43;101409.47;4463412;32;34816;-73
2022/03/19 03:52:34;;;;;;;33.45;16.98;;;;;;;2.08;71.52;101408.28;4477104;32;35128;-73
2022/03/19 03:55:06;;;;;;;39.35;17.70;;;;;;;2.73;68.79;101408.41;4463453;32;34317;-72
2022/03/19 03:57:35;;;;;;;38.75;18.08;;;;;;;2.82;67.45;101402.09;4463968;32;33383;-73
2022/03/19 04:00:05;;;;;;;35.72;20.15;;;;;;;2.63;68.95;101407.91;4450777;32;33173;-73
2022/03/19 04:02:39;;;;;;;39.92;19.15;;;;;;;1.99;72.75;101409.44;4477819;32;35205;-73
2022/03/19 04:05:08;;;;;;;33.88;18.15;;;;;;;2.07;73.02;101408.22;4477462;32;35305;-73
2022/03/19 04:07:36;;;;;;;35.42;18.40;;;;;;;1.69;74.25;101412.91;4463635;32;34470;-73
2022/03/19 04:10:04;;;;;;;34.70;17.12;;;;;;;2.88;70.06;101408.34;4477830;32;33495;-73
2022/03/19 04:12:33;;;;;;;42.22;18.30;;;;;;;2.70;69.67;101404.00;4475619;32;35802;-73
2022/03/19 04:15:02;;;;;;;29.40;17.30;;;;;;;2.40;71.89;101400.59;4462509;32;34284;-73
2022/03/19 04:17:30;;;;;;;41.40;17.87;;;;;;;2.98;69.90;101398.63;4464940;32;33727;-73
2022/03/19 04:19:58;;;;;;;31.58;17.52;;;;;;;3.37;68.04;101388.66;4458329;32;33997;-73
2022/03/19 04:22:37;;;;;;;34.15;19.70;;;;;;;3.19;68.01;101385.09;4470296;32;34947;-73
2022/03/19 04:25:11;;;;;;;32.95;18.55;;;;;;;2.57;70.67;101391.25;4462630;32;34481;-74
2022/03/19 04:27:40;;;;;;;32.95;16.92;;;;;;;3.60;67.44;101391.53;4461091;32;33510;-73
2022/03/19 04:30:12;;;;;;;43.30;18.83;;;;;;;3.36;67.76;101394.59;4473664;32;33901;-73
2022/03/19 04:33:07;;;;;;;38.38;19.25;;;;;;;3.76;66.23;101382.87;4462023;32;35976;-74
2022/03/19 04:38:22;;;;;;;33.75;16.62;;;;;;;3.81;66.70;101389.09;4464237;32;34606;-73
2022/03/19 04:40:52;;;;;;;41.10;20.10;;;;;;;3.78;66.98;101395.00;4462833;32;33131;-74
2022/03/19 04:43:20;;;;;;;35.63;17.65;;;;;;;3.14;69.98;101387.47;4457224;32;34897;-73
2022/03/19 04:45:49;;;;;;;38.33;19.73;;;;;;;3.27;69.11;101390.69;4479504;31;35047;-72
2022/03/19 04:48:17;;;;;;;41.88;19.30;;;;;;;2.94;70.25;101393.25;4472559;32;33443;-73
2022/03/19 04:50:46;;;;;;;39.47;20.62;;;;;;;3.57;68.17;101397.38;4484982;32;34030;-72
2022/03/19 04:53:13;;;;;;;43.47;21.12;;;;;;;3.73;67.10;101396.47;4469560;32;34796;-73
2022/03/19 04:55:42;;;;;;;37.30;20.17;;;;;;;3.44;68.36;101397.56;4468414;32;35303;-73
2022/03/19 04:58:10;;;;;;;36.70;18.77;;;;;;;3.87;66.79;101394.56;4486337;32;34256;-73
2022/03/19 05:00:38;;;;;;;40.55;21.00;;;;;;;3.07;69.59;101399.91;4460804;32;33826;-73
2022/03/19 05:03:06;;;;;;;40.15;19.60;;;;;;;2.85;71.46;101404.78;4455780;32;33742;-72
2022/03/19 05:05:34;;;;;;;52.88;21.20;;;;;;;3.02;71.49;101410.84;4470055;32;35286;-71
2022/03/19 05:08:03;;;;;;;42.95;22.40;;;;;;;4.12;68.08;101406.97;4455726;32;32814;-72
2022/03/19 05:13:18;;;;;;;43.80;21.27;;;;;;;3.79;68.26;101403.59;4458773;32;35891;-73
2022/03/19 05:15:46;;;;;;;48.40;22.33;;;;;;;3.59;69.54;101413.78;4480691;32;34295;-73
2022/03/19 05:18:14;;;;;;;42.88;22.48;;;;;;;3.20;71.67;101412.63;4485926;32;33356;-73
2022/03/19 05:20:42;;;;;;;47.55;24.05;;;;;;;3.68;70.46;101409.94;4463649;32;34010;-73
2022/03/19 05:23:10;;;;;;;55.40;25.88;;;;;;;3.86;69.55;101412.53;4470364;32;35927;-73
2022/03/19 05:25:39;;;;;;;53.50;24.30;;;;;;;4.08;68.92;101412.78;4469894;32;34654;-73
2022/03/19 05:28:07;;;;;;;43.87;22.52;;;;;;;3.85;68.08;101409.09;4469767;32;33699;-73
2022/03/19 05:30:53;;;;;;;53.53;25.58;;;;;;;4.43;67.08;101407.56;4469941;32;33897;-72
2022/03/19 05:36:08;;;;;;;50.40;22.83;;;;;;;4.32;66.38;101401.88;4470044;32;34343;-72
2022/03/19 05:38:36;;;;;;;55.83;24.23;;;;;;;4.26;66.93;101404.19;4470085;32;33408;-72
2022/03/19 05:41:03;;;;;;;45.22;23.55;;;;;;;4.42;66.13;101403.22;4469773;32;33337;-73
2022/03/19 05:43:31;;;;;;;43.92;24.02;;;;;;;4.62;65.82;101401.56;4456261;32;35066;-73
2022/03/19 05:45:59;;;;;;;43.60;23.52;;;;;;;4.89;65.42;101404.56;4481547;32;34283;-73
2022/03/19 05:48:27;;;;;;;49.83;24.02;;;;;;;4.76;65.06;101403.09;4470089;32;33951;-73
2022/03/19 05:50:55;;;;;;;52.30;24.08;;;;;;;5.35;63.29;101393.69;4455801;32;34067;-72
2022/03/19 05:53:28;;;;;;;54.35;25.25;;;;;;;5.38;63.34;101398.97;4470411;32;35811;-72
2022/03/19 05:55:56;;;;;;;47.35;23.33;;;;;;;5.04;64.59;101397.47;4466525;32;35212;-73
2022/03/19 05:58:23;;;;;;;50.55;27.17;;;;;;;5.43;63.67;101405.22;4481862;32;33266;-73
2022/03/19 06:00:52;;;;;;;58.60;25.37;;;;;;;5.72;61.22;101403.00;4455644;32;34017;-74
2022/03/19 06:03:20;;;;;;;53.78;25.88;;;;;;;5.82;61.22;101404.25;4470120;32;35038;-72
2022/03/19 06:05:48;;;;;;;52.92;25.25;;;;;;;5.57;61.79;101407.53;4469651;32;34439;-73
2022/03/19 06:08:15;;;;;;;44.15;22.37;;;;;;;5.39;62.89;101408.50;4456122;32;33584;-74
2022/03/19 06:10:43;;;;;;;39.58;21.92;;;;;;;6.33;61.22;101408.94;4469520;32;34023;-73
2022/03/19 06:13:11;;;;;;;44.20;23.92;;;;;;;5.60;63.84;101411.12;4469557;32;35055;-73
2022/03/19 06:15:39;;;;;;;43.33;22.98;;;;;;;5.49;63.03;101412.38;4469988;32;35180;-73
2022/03/19 06:18:07;;;;;;;54.38;24.55;;;;;;;5.60;62.14;101412.81;4456150;32;33911;-73
2022/03/19 06:20:34;;;;;;;55.88;26.17;;;;;;;5.60;63.36;101413.69;4477506;32;33832;-74
2022/03/19 06:23:02;;;;;;;57.75;25.50;;;;;;;5.61;63.36;101418.06;4462889;32;34412;-73
2022/03/19 06:25:30;;;;;;;43.55;22.67;;;;;;;5.43;62.82;101417.25;4469403;32;35149;-74
2022/03/19 06:27:58;;;;;;;46.08;23.15;;;;;;;5.93;60.49;101412.47;4455886;32;34288;-74
2022/03/19 06:30:25;;;;;;;47.78;22.33;;;;;;;5.82;60.68;101412.94;4469522;32;33877;-73
2022/03/19 06:32:55;;;;;;;57.62;23.77;;;;;;;5.88;59.49;101420.06;4469834;32;35726;-73
2022/03/19 06:38:15;;;;;;;48.45;24.37;;;;;;;6.15;58.01;101422.03;4441114;32;33668;-73
2022/03/19 06:40:43;;;;;;;45.20;22.92;;;;;;;6.14;58.26;101421.16;4476447;32;33743;-73
2022/03/19 06:43:11;;;;;;;45.85;22.90;;;;;;;6.17;57.49;101417.81;4485502;32;35102;-74
2022/03/19 06:45:39;;;;;;;48.55;23.25;;;;;;;6.29;57.46;101417.44;4470184;32;34518;-73
2022/03/19 06:48:07;;;;;;;52.28;23.40;;;;;;;6.30;57.62;101414.00;4484796;32;33243;-74
2022/03/19 06:50:34;;;;;;;50.72;25.58;;;;;;;5.73;58.69;101415.09;4463521;32;33156;-74
2022/03/19 06:53:03;;;;;;;43.15;23.40;;;;;;;6.16;58.68;101416.94;4469927;32;35066;-74
2022/03/19 06:55:32;;;;;;;49.45;22.65;;;;;;;6.51;57.25;101414.88;4461851;32;35266;-73
2022/03/19 06:58:00;;;;;;;43.63;22.95;;;;;;;6.47;57.10;101423.31;4485636;32;33348;-74
2022/03/19 07:00:28;;;;;;;46.33;24.60;;;;;;;6.31;58.20;101420.94;4477058;32;33938;-73
2022/03/19 07:02:56;;;;;;;56.50;24.95;;;;;;;6.48;57.80;101414.75;4455948;32;35059;-74
2022/03/19 07:05:26;;;;;;;45.53;23.73;;;;;;;6.28;58.50;101420.81;4469226;32;35257;-74
2022/03/19 07:07:55;;;;;;;51.10;26.33;;;;;;;6.45;59.23;101424.97;4455820;32;33043;-73
2022/03/19 07:10:23;;;;;;;52.15;25.33;;;;;;;6.18;59.73;101417.88;4458854;32;34644;-73
2022/03/19 07:12:54;;;;;;;52.13;23.85;;;;;;;6.07;60.37;101421.69;4455661;32;35762;-73
2022/03/19 07:15:24;;;;;;;43.67;23.25;;;;;;;6.46;58.75;101421.56;4447531;32;34640;-73
2022/03/19 07:17:52;;;;;;;41.40;21.50;;;;;;;6.69;58.21;101426.75;4466422;32;34366;-73
2022/03/19 07:20:20;;;;;;;40.15;20.58;;;;;;;7.10;55.28;101422.25;4446681;32;32262;-73
2022/03/19 07:22:50;;;;;;;37.33;18.50;;;;;;;7.55;52.22;101429.91;4471261;32;35158;-74
2022/03/19 07:25:20;;;;;;;34.60;17.25;;;;;;;8.06;51.09;101427.34;4469567;32;34489;-73
2022/03/19 07:27:50;;;;;;;31.60;16.52;;;;;;;8.63;48.10;101420.50;4471323;32;33542;-74
2022/03/19 07:30:19;;;;;;;32.75;15.15;;;;;;;8.97;45.16;101419.81;4464209;32;34825;-74
2022/03/19 07:32:48;;;;;;;27.48;14.45;;;;;;;8.71;44.21;101426.81;4442775;32;34856;-75
2022/03/19 07:35:17;;;;;;;24.73;11.93;;;;;;;9.48;41.41;101423.84;4458818;32;34549;-74
2022/03/19 07:37:48;;;;;;;29.58;15.43;;;;;;;9.18;42.14;101422.16;4446976;32;33411;-73
2022/03/19 07:41:45;;;;;;;27.80;15.73;;;;;;;9.15;42.47;101422.06;4458054;32;33852;-74
2022/03/19 07:43:09;;;;;;;26.27;14.87;;;;;;;9.96;41.76;101419.87;4485205;32;35752;-74
2022/03/19 07:45:39;;;;;;;28.73;14.43;;;;;;;9.34;41.04;101430.37;4469168;32;35079;-73
2022/03/19 07:48:07;;;;;;;31.77;15.80;;;;;;;10.27;40.69;101421.53;4470745;32;33562;-74
2022/03/19 07:50:52;;;;;;;28.15;14.25;;;;;;;9.64;40.19;101420.81;4476314;32;34863;-74
2022/03/19 07:53:21;;;;;;;28.90;14.60;;;;;;;10.47;39.36;101421.16;4455160;32;34949;-74
2022/03/19 07:55:53;;;;;;;33.97;14.87;;;;;;;10.97;38.15;101421.38;4461884;32;34382;-74
2022/03/19 07:58:22;;;;;;;29.85;14.75;;;;;;;11.02;37.54;101419.75;4456758;32;32914;-74
2022/03/19 08:00:50;;;;;;;30.45;16.27;;;;;;;11.25;36.69;101424.56;4470546;32;35011;-74
2022/03/19 08:03:19;;;;;;;31.35;14.43;;;;;;;10.86;37.65;101434.19;4471273;32;34819;-74
2022/03/19 08:05:48;;;;;;;31.95;16.77;;;;;;;10.80;37.85;101432.31;4456880;32;35197;-74
2022/03/19 08:08:16;;;;;;;25.08;14.68;;;;;;;11.00;37.55;101431.88;4471182;32;33600;-74
2022/03/19 08:10:46;;;;;;;31.00;15.77;;;;;;;11.35;36.45;101439.56;4475861;32;33921;-73
2022/03/19 08:13:14;;;;;;;32.47;16.60;;;;;;;11.26;36.50;101437.63;4463071;32;34921;-74
2022/03/19 08:15:42;;;;;;;32.50;16.12;;;;;;;11.07;37.48;101438.97;4461481;32;34561;-76
2022/03/19 08:18:11;;;;;;;28.90;16.27;;;;;;;11.41;36.83;101444.00;4486543;32;33639;-74
2022/03/19 08:20:39;;;;;;;34.65;16.15;;;;;;;10.87;38.54;101437.66;4470777;32;34747;-74
2022/03/19 08:23:09;;;;;;;29.17;16.08;;;;;;;11.09;38.14;101433.78;4472648;32;35070;-74
2022/03/19 08:25:38;;;;;;;26.87;14.90;;;;;;;10.59;37.96;101443.16;4471422;32;33690;-74
2022/03/19 08:28:06;;;;;;;33.78;17.12;;;;;;;10.90;37.76;101441.22;4472549;32;33585;-74
2022/03/19 08:30:34;;;;;;;28.87;16.62;;;;;;;11.51;37.14;101439.00;4481008;32;33907;-74
2022/03/19 08:33:03;;;;;;;35.10;17.20;;;;;;;11.66;37.77;101441.00;4456691;32;34228;-73
2022/03/19 08:35:30;;;;;;;34.83;17.52;;;;;;;12.07;36.09;101434.78;4459495;32;34503;-73
2022/03/19 08:40:45;;;;;;;33.58;16.35;;;;;;;11.85;36.12;101442.22;4470369;32;34958;-73
2022/03/19 08:43:13;;;;;;;29.90;14.65;;;;;;;12.27;34.88;101433.37;4456854;32;34940;-74
2022/03/19 08:45:40;;;;;;;27.35;15.65;;;;;;;11.98;35.72;101434.63;4470182;32;35096;-74
2022/03/19 08:48:09;;;;;;;28.08;15.65;;;;;;;11.76;36.18;101431.62;4470678;32;33798;-74
2022/03/19 08:50:37;;;;;;;34.47;16.73;;;;;;;11.22;36.59;101437.53;4470053;32;34024;-73
2022/03/19 08:53:05;;;;;;;29.70;16.12;;;;;;;11.90;35.98;101435.38;4470171;32;34977;-74
2022/03/19 08:55:33;;;;;;;28.35;14.65;;;;;;;11.10;36.85;101439.06;4473441;32;34539;-74
2022/03/19 08:58:00;;;;;;;32.30;14.43;;;;;;;11.08;36.69;101439.84;4471081;32;33445;-74
2022/03/19 09:00:28;;;;;;;25.52;14.13;;;;;;;11.39;36.79;101434.41;4484904;32;34041;-73
2022/03/19 09:02:57;;;;;;;28.12;16.05;;;;;;;11.49;36.52;101427.66;4472133;32;35061;-75
2022/03/19 09:05:27;;;;;;;29.17;13.95;;;;;;;10.83;37.74;101434.09;4482698;32;34423;-75
2022/03/19 09:07:55;;;;;;;29.65;14.60;;;;;;;11.04;36.63;101436.28;4443036;32;32749;-74
2022/03/19 09:10:23;;;;;;;29.20;15.30;;;;;;;11.06;37.40;101434.59;4471089;32;34852;-74
2022/03/19 09:12:51;;;;;;;24.95;14.45;;;;;;;11.02;37.31;101429.31;4471533;32;35260;-74
2022/03/19 09:15:18;;;;;;;28.30;13.15;;;;;;;11.32;36.59;101440.34;4470309;32;35233;-75
2022/03/19 09:17:47;;;;;;;29.12;15.95;;;;;;;11.17;37.05;101440.94;4470613;32;33674;-74
2022/03/19 09:20:14;;;;;;;28.45;14.73;;;;;;;10.86;37.15;101443.72;4470510;32;34233;-73
2022/03/19 09:22:42;;;;;;;36.40;20.10;;;;;;;10.56;37.85;101444.81;4471896;32;35282;-74
2022/03/19 09:25:10;;;;;;;26.45;14.80;;;;;;;10.33;38.35;101437.31;4482832;31;34653;-73
2022/03/19 09:27:39;;;;;;;21.83;13.45;;;;;;;10.38;38.26;101435.72;4482778;31;34313;-74
2022/03/19 09:30:11;;;;;;;44.78;15.63;;;;;;;10.15;38.86;101434.25;4465376;32;147175;-74
2022/03/19 09:32:39;;;;;;;30.73;16.17;;;;;;;10.26;38.43;101435.38;4485863;32;35935;-73
2022/03/19 09:35:08;;;;;;;30.90;15.55;;;;;;;10.11;38.65;101442.81;4471091;32;32803;-73
2022/03/19 09:37:36;;;;;;;33.38;17.17;;;;;;;10.66;37.69;101436.34;4471510;32;32231;-74
2022/03/19 09:40:06;;;;;;;29.35;13.48;;;;;;;9.95;38.62;101438.94;4468923;32;34123;-73
2022/03/19 09:42:49;;;;;;;27.60;15.48;;;;;;;9.81;38.51;101435.97;4454478;32;34910;-73
2022/03/19 09:45:19;;;;;;;25.90;13.50;;;;;;;10.12;38.47;101436.78;4452824;32;34421;-74
2022/03/19 09:47:49;;;;;;;23.98;12.48;;;;;;;10.31;36.91;101441.62;4440110;32;32676;-74
2022/03/19 09:50:16;;;;;;;24.85;14.13;;;;;;;10.73;36.60;101432.12;4454225;32;34242;-74
2022/03/19 09:52:45;;;;;;;23.55;11.50;;;;;;;10.68;37.47;101432.06;4454675;32;34848;-75
2022/03/19 09:55:14;;;;;;;26.35;13.43;;;;;;;10.32;37.17;101438.16;4453965;32;35115;-73
2022/03/19 09:57:43;;;;;;;28.08;13.95;;;;;;;10.45;37.63;101441.94;4454477;32;34426;-75
2022/03/19 10:00:13;;;;;;;23.67;13.35;;;;;;;10.68;37.17;101437.25;4452999;32;34056;-74
2022/03/19 10:02:53;;;;;;;28.35;14.65;;;;;;;10.91;37.20;101431.69;4466112;32;36107;-75
2022/03/19 10:10:56;;;;;;;24.50;12.80;;;;;;;11.05;34.59;101430.25;4453439;32;33827;-75
2022/03/19 10:13:26;;;;;;;24.37;11.82;;;;;;;10.95;35.64;101430.91;4456720;32;35162;-75
2022/03/19 10:15:55;;;;;;;26.37;12.02;;;;;;;11.37;34.38;101430.03;4455765;32;35285;-75
2022/03/19 10:18:28;;;;;;;27.13;13.38;;;;;;;11.83;33.66;101425.66;4469756;32;33564;-74
2022/03/19 10:21:03;;;;;;;28.05;13.27;;;;;;;12.10;34.30;101421.78;4467485;32;33834;-75
2022/03/19 10:23:37;;;;;;;23.45;12.55;;;;;;;12.91;33.19;101416.87;4469036;32;35126;-77
2022/03/19 10:26:06;;;;;;;24.73;13.65;;;;;;;13.54;31.83;101422.03;4465642;32;35213;-75
2022/03/19 10:28:35;;;;;;;26.08;13.52;;;;;;;13.37;31.84;101420.06;4453876;32;33668;-79
2022/03/19 10:31:03;;;;;;;26.23;13.40;;;;;;;13.70;31.82;101407.34;4452495;32;34875;-77
2022/03/19 10:33:32;;;;;;;25.15;13.73;;;;;;;13.29;32.90;101408.62;4453306;32;35928;-77
2022/03/19 10:36:18;;;;;;;24.30;13.52;;;;;;;13.08;32.95;101409.25;4453725;32;34411;-75
2022/03/19 10:38:46;;;;;;;34.83;13.62;;;;;;;13.88;31.71;101406.63;4455142;32;33249;-76
2022/03/19 10:41:17;;;;;;;24.10;12.85;;;;;;;13.08;32.06;101410.13;4469508;32;34081;-76
2022/03/19 10:43:46;;;;;;;21.75;12.27;;;;;;;13.46;31.87;101404.50;4456353;32;35123;-75
2022/03/19 10:46:18;;;;;;;25.30;14.38;;;;;;;14.13;30.80;101405.97;4469365;32;34352;-76
2022/03/19 10:48:52;;;;;;;23.20;12.98;;;;;;;14.07;31.29;101405.06;4469379;32;33514;-74
2022/03/19 10:51:20;;;;;;;24.10;13.38;;;;;;;14.92;29.10;101402.13;4460051;32;34111;-74
2022/03/19 10:53:50;;;;;;;25.52;12.98;;;;;;;14.65;29.51;101397.62;4485461;32;35922;-75
2022/03/19 10:56:18;;;;;;;27.27;13.77;;;;;;;13.94;30.03;101397.09;4484233;32;35287;-75
2022/03/19 10:59:01;;;;;;;21.12;12.40;;;;;;;13.12;31.61;101407.56;4473243;32;33437;-78
2022/03/19 11:01:32;;;;;;;20.60;12.55;;;;;;;13.90;30.94;101405.78;4478629;32;34631;-75
2022/03/19 11:04:03;;;;;;;24.77;13.55;;;;;;;14.59;30.11;101394.94;4455840;32;35331;-75
2022/03/19 11:06:36;;;;;;;24.67;13.13;;;;;;;14.25;30.46;101388.59;4435408;32;33656;-75
2022/03/19 11:09:10;;;;;;;21.40;12.35;;;;;;;15.01;28.74;101389.91;4455613;32;33568;-76
2022/03/19 11:11:49;;;;;;;21.30;12.60;;;;;;;16.05;27.54;101390.13;4469181;32;33964;-76
2022/03/19 11:14:23;;;;;;;24.77;11.77;;;;;;;15.74;27.23;101378.69;4455869;32;36005;-75
2022/03/19 11:17:25;;;;;;;20.77;11.10;;;;;;;16.04;26.47;101376.97;4462866;32;34448;-75
2022/03/19 11:20:01;;;;;;;23.30;12.40;;;;;;;16.17;26.90;101368.22;4472368;32;33564;-75
2022/03/19 11:22:39;;;;;;;22.10;12.07;;;;;;;17.01;24.63;101368.87;4474773;32;34776;-74
2022/03/19 11:25:22;;;;;;;23.20;11.90;;;;;;;17.00;24.39;101356.59;4465279;32;34914;-76
2022/03/19 11:27:51;;;;;;;19.08;11.73;;;;;;;16.96;23.98;101354.84;4483746;32;35231;-77
2022/03/19 11:30:23;;;;;;;23.65;12.48;;;;;;;16.70;24.39;101347.94;4468228;32;34258;-75
2022/03/19 11:33:00;;;;;;;25.73;12.37;;;;;;;17.53;23.57;101336.09;4463691;32;33986;-74
2022/03/19 11:35:34;;;;;;;20.50;11.60;;;;;;;18.05;22.21;101348.84;4472261;32;34465;-77
2022/03/19 11:38:13;;;;;;;21.35;11.27;;;;;;;17.00;23.29;101351.34;4458988;32;33856;-77
2022/03/19 11:40:45;;;;;;;17.00;10.05;;;;;;;16.98;22.80;101346.09;4471809;32;34292;-76
2022/03/19 11:43:27;;;;;;;19.33;10.65;;;;;;;17.05;22.81;101344.31;4457296;32;33087;-76
2022/03/19 11:46:06;;;;;;;19.10;11.05;;;;;;;17.35;22.03;101337.97;4456600;32;34955;-77
2022/03/19 11:48:45;;;;;;;21.33;11.05;;;;;;;17.12;21.83;101332.84;4457368;32;35211;-77